Lunenburg, VT (05906)

10:47 PM EDT on July 07, 2015 (GMT -0400)
Neal Pond | | Change Station
CLOSE
Current Station
Personal Weather Station
Location: Lunenburg, VT
Elevation: 1211 ft
Nearby Weather Stations

Elev 1211 ft 44.49 °N, 71.69 °W | Updated 1 second ago

Scattered Clouds
Scattered Clouds
71.9 °F
Feels Like 71.9 °F
N
1.0
Wind Variable Wind from SSE
Gusts 2.0 mph

Today
High -- | Low -- °F
--% Chance of Precip.
Yesterday
High -- | Low -- °F
Precip. -- in
5:09 AM 8:33 PM
Waning Gibbous, 58% visible
Pressure 29.89 in
Visibility 7.0 miles
Clouds Few 3900 ft
Scattered Clouds 8500 ft
Dew Point 68 °F
Humidity 89%
Rainfall 0.00 in
Snow Depth Not available.
UV 0 out of 12
Pollen 1.90 out of 12
Air Quality Not available.
Flu Activity Not available.
METAR KHIE 080152Z AUTO 00000KT 7SM FEW039 SCT085 21/19 A2990 RMK AO2 SLP120 T02110194 TSNO

More Conditions Fewer Conditions

Pressure 29.89 in
Visibility 7.0 miles
Clouds Few 3900 ft
Scattered Clouds 8500 ft
Dew Point 68 °F
Humidity 89%
Rainfall 0.00 in
Snow Depth Not available.
UV 0 out of 12
Pollen 1.90 out of 12
Air Quality Not available.
Flu Activity Not available.
METAR KHIE 080152Z AUTO 00000KT 7SM FEW039 SCT085 21/19 A2990 RMK AO2 SLP120 T02110194 TSNO

More Conditions Fewer Conditions

10-Day Weather Forecast

×

Almanac

Astronomy

Jul. 07, 2015 Rise Set
Actual Time
Civil Twilight
Nautical Twilight
Astronomical Twilight
Moon
Length of Visible Light
Length of Day
Tomorrow will be .
, % of the Moon is Illuminated

Today's Extremes

State Highs State Lows

Community

WunderPhotos

Upload Photos

1,836,021 photos uploaded!

WunderBlogs® & News

Nearby

Air Quality

  Air Quality AQ Index Pollutant
Not available.

Snow Depth

Station Depth Elevation

Earthquake Activity

City Distance Mag. Time & Date
Minimum magnitude displayed is 2.5.

Coastal Water Temperatures

Place Temperature

Stations

Nearby Weather Stations

Station Location Temp. Windchill Dew Point Humidity Wind Precip. Elev Updated Type